sensor_id;sensor_type;location;lat;lon;timestamp;P1;durP1;ratioP1;P2;durP2;ratioP2
3881;SDS011;1956;53.482;10.238;2023-04-25T00:04:06;6.83;;;3.27;;
3881;SDS011;1956;53.482;10.238;2023-04-25T00:09:07;3.38;;;3.08;;
3881;SDS011;1956;53.482;10.238;2023-04-25T00:14:09;5.43;;;3.33;;
3881;SDS011;1956;53.482;10.238;2023-04-25T00:19:10;9.40;;;3.23;;
3881;SDS011;1956;53.482;10.238;2023-04-25T00:24:10;7.30;;;2.73;;
3881;SDS011;1956;53.482;10.238;2023-04-25T00:29:10;3.80;;;3.00;;
3881;SDS011;1956;53.482;10.238;2023-04-25T00:34:10;8.23;;;3.17;;
3881;SDS011;1956;53.482;10.238;2023-04-25T00:39:11;4.10;;;3.03;;
3881;SDS011;1956;53.482;10.238;2023-04-25T00:44:11;11.57;;;3.77;;
3881;SDS011;1956;53.482;10.238;2023-04-25T00:49:11;5.13;;;3.30;;
3881;SDS011;1956;53.482;10.238;2023-04-25T00:54:15;22.63;;;4.80;;
3881;SDS011;1956;53.482;10.238;2023-04-25T00:59:15;19.40;;;4.27;;
3881;SDS011;1956;53.482;10.238;2023-04-25T01:04:16;12.33;;;3.60;;
3881;SDS011;1956;53.482;10.238;2023-04-25T01:09:17;11.47;;;3.97;;
3881;SDS011;1956;53.482;10.238;2023-04-25T01:14:17;17.80;;;3.47;;
3881;SDS011;1956;53.482;10.238;2023-04-25T01:19:18;20.13;;;3.60;;
3881;SDS011;1956;53.482;10.238;2023-04-25T01:24:19;13.93;;;3.40;;
3881;SDS011;1956;53.482;10.238;2023-04-25T01:29:19;25.60;;;3.80;;
3881;SDS011;1956;53.482;10.238;2023-04-25T01:34:20;17.87;;;3.40;;
3881;SDS011;1956;53.482;10.238;2023-04-25T01:39:20;8.37;;;3.10;;
3881;SDS011;1956;53.482;10.238;2023-04-25T01:44:21;18.03;;;3.30;;
3881;SDS011;1956;53.482;10.238;2023-04-25T01:49:21;17.67;;;3.10;;
3881;SDS011;1956;53.482;10.238;2023-04-25T01:54:21;24.80;;;4.07;;
3881;SDS011;1956;53.482;10.238;2023-04-25T01:59:21;21.08;;;4.88;;
3881;SDS011;1956;53.482;10.238;2023-04-25T02:04:22;19.47;;;3.67;;
3881;SDS011;1956;53.482;10.238;2023-04-25T02:09:22;16.57;;;4.00;;
3881;SDS011;1956;53.482;10.238;2023-04-25T02:14:22;11.47;;;3.63;;
3881;SDS011;1956;53.482;10.238;2023-04-25T02:19:23;16.52;;;5.13;;
3881;SDS011;1956;53.482;10.238;2023-04-25T02:24:23;22.53;;;4.40;;
3881;SDS011;1956;53.482;10.238;2023-04-25T02:29:23;18.13;;;3.93;;
3881;SDS011;1956;53.482;10.238;2023-04-25T02:34:23;14.80;;;3.90;;
3881;SDS011;1956;53.482;10.238;2023-04-25T02:39:24;25.20;;;3.43;;
3881;SDS011;1956;53.482;10.238;2023-04-25T02:44:25;11.53;;;3.60;;
3881;SDS011;1956;53.482;10.238;2023-04-25T02:49:25;15.03;;;3.13;;
3881;SDS011;1956;53.482;10.238;2023-04-25T02:54:25;32.60;;;4.20;;
3881;SDS011;1956;53.482;10.238;2023-04-25T02:59:26;18.90;;;3.53;;
3881;SDS011;1956;53.482;10.238;2023-04-25T03:04:26;19.02;;;3.65;;
3881;SDS011;1956;53.482;10.238;2023-04-25T03:09:26;21.45;;;4.05;;
3881;SDS011;1956;53.482;10.238;2023-04-25T03:14:26;21.05;;;3.85;;
3881;SDS011;1956;53.482;10.238;2023-04-25T03:19:27;25.43;;;4.23;;
3881;SDS011;1956;53.482;10.238;2023-04-25T03:24:27;20.57;;;2.80;;
3881;SDS011;1956;53.482;10.238;2023-04-25T03:29:28;13.93;;;3.43;;
3881;SDS011;1956;53.482;10.238;2023-04-25T03:34:28;18.30;;;4.30;;
3881;SDS011;1956;53.482;10.238;2023-04-25T03:39:28;15.17;;;3.90;;
3881;SDS011;1956;53.482;10.238;2023-04-25T03:44:30;37.93;;;3.57;;
3881;SDS011;1956;53.482;10.238;2023-04-25T03:49:30;14.50;;;2.87;;
3881;SDS011;1956;53.482;10.238;2023-04-25T03:54:30;12.77;;;3.40;;
3881;SDS011;1956;53.482;10.238;2023-04-25T03:59:31;26.30;;;3.63;;
3881;SDS011;1956;53.482;10.238;2023-04-25T04:04:31;15.13;;;2.63;;
3881;SDS011;1956;53.482;10.238;2023-04-25T04:09:31;17.13;;;3.80;;
3881;SDS011;1956;53.482;10.238;2023-04-25T04:14:31;17.37;;;3.90;;
3881;SDS011;1956;53.482;10.238;2023-04-25T04:19:32;9.27;;;2.72;;
3881;SDS011;1956;53.482;10.238;2023-04-25T04:24:32;15.82;;;2.97;;
3881;SDS011;1956;53.482;10.238;2023-04-25T04:29:32;18.20;;;2.80;;
3881;SDS011;1956;53.482;10.238;2023-04-25T04:34:32;5.80;;;1.87;;
3881;SDS011;1956;53.482;10.238;2023-04-25T04:39:33;20.60;;;2.70;;
3881;SDS011;1956;53.482;10.238;2023-04-25T04:44:34;20.03;;;3.13;;
3881;SDS011;1956;53.482;10.238;2023-04-25T04:49:35;19.07;;;2.87;;
3881;SDS011;1956;53.482;10.238;2023-04-25T04:54:36;20.63;;;2.90;;
3881;SDS011;1956;53.482;10.238;2023-04-25T04:59:36;12.13;;;2.70;;
3881;SDS011;1956;53.482;10.238;2023-04-25T05:04:37;10.73;;;2.70;;
3881;SDS011;1956;53.482;10.238;2023-04-25T05:09:37;13.53;;;3.10;;
3881;SDS011;1956;53.482;10.238;2023-04-25T05:14:37;8.97;;;3.40;;
3881;SDS011;1956;53.482;10.238;2023-04-25T05:19:38;7.97;;;2.53;;
3881;SDS011;1956;53.482;10.238;2023-04-25T05:24:39;10.80;;;3.00;;
3881;SDS011;1956;53.482;10.238;2023-04-25T05:29:39;7.73;;;2.10;;
3881;SDS011;1956;53.482;10.238;2023-04-25T05:34:39;16.00;;;3.43;;
3881;SDS011;1956;53.482;10.238;2023-04-25T05:39:40;22.73;;;2.72;;
3881;SDS011;1956;53.482;10.238;2023-04-25T05:44:40;16.50;;;3.17;;
3881;SDS011;1956;53.482;10.238;2023-04-25T05:49:40;9.57;;;2.07;;
3881;SDS011;1956;53.482;10.238;2023-04-25T05:54:40;9.63;;;2.72;;
3881;SDS011;1956;53.482;10.238;2023-04-25T05:59:41;14.23;;;2.20;;
3881;SDS011;1956;53.482;10.238;2023-04-25T06:04:41;10.03;;;2.20;;
3881;SDS011;1956;53.482;10.238;2023-04-25T06:09:41;13.83;;;2.70;;
3881;SDS011;1956;53.482;10.238;2023-04-25T06:14:41;9.60;;;2.20;;
3881;SDS011;1956;53.482;10.238;2023-04-25T06:19:42;19.20;;;2.30;;
3881;SDS011;1956;53.482;10.238;2023-04-25T06:24:42;13.07;;;3.17;;
3881;SDS011;1956;53.482;10.238;2023-04-25T06:29:42;9.67;;;2.23;;
3881;SDS011;1956;53.482;10.238;2023-04-25T06:34:42;10.00;;;2.00;;
3881;SDS011;1956;53.482;10.238;2023-04-25T06:39:42;16.90;;;2.20;;
3881;SDS011;1956;53.482;10.238;2023-04-25T06:44:43;11.10;;;2.70;;
3881;SDS011;1956;53.482;10.238;2023-04-25T06:49:43;7.70;;;1.70;;
3881;SDS011;1956;53.482;10.238;2023-04-25T06:54:43;6.37;;;2.23;;
3881;SDS011;1956;53.482;10.238;2023-04-25T06:59:44;9.97;;;2.50;;
3881;SDS011;1956;53.482;10.238;2023-04-25T07:04:44;7.67;;;1.93;;
3881;SDS011;1956;53.482;10.238;2023-04-25T07:09:46;9.20;;;2.20;;
3881;SDS011;1956;53.482;10.238;2023-04-25T07:14:46;5.37;;;1.77;;
3881;SDS011;1956;53.482;10.238;2023-04-25T07:19:46;10.70;;;2.57;;
3881;SDS011;1956;53.482;10.238;2023-04-25T07:24:46;9.00;;;2.50;;
3881;SDS011;1956;53.482;10.238;2023-04-25T07:29:48;10.33;;;1.73;;
3881;SDS011;1956;53.482;10.238;2023-04-25T07:34:48;11.97;;;2.53;;
3881;SDS011;1956;53.482;10.238;2023-04-25T07:39:49;5.83;;;1.60;;
3881;SDS011;1956;53.482;10.238;2023-04-25T07:44:49;9.27;;;1.90;;
3881;SDS011;1956;53.482;10.238;2023-04-25T07:49:50;13.33;;;1.63;;
3881;SDS011;1956;53.482;10.238;2023-04-25T07:54:50;4.43;;;2.63;;
3881;SDS011;1956;53.482;10.238;2023-04-25T07:59:51;11.10;;;2.40;;
3881;SDS011;1956;53.482;10.238;2023-04-25T08:04:51;7.50;;;1.90;;
3881;SDS011;1956;53.482;10.238;2023-04-25T08:09:51;6.67;;;2.07;;
3881;SDS011;1956;53.482;10.238;2023-04-25T08:14:52;5.47;;;1.70;;
3881;SDS011;1956;53.482;10.238;2023-04-25T08:19:53;8.93;;;2.10;;
3881;SDS011;1956;53.482;10.238;2023-04-25T08:24:53;8.17;;;2.33;;
3881;SDS011;1956;53.482;10.238;2023-04-25T08:29:53;8.27;;;1.50;;
3881;SDS011;1956;53.482;10.238;2023-04-25T08:34:54;13.00;;;2.53;;
3881;SDS011;1956;53.482;10.238;2023-04-25T08:39:55;4.03;;;1.33;;
3881;SDS011;1956;53.482;10.238;2023-04-25T08:44:56;7.53;;;1.93;;
3881;SDS011;1956;53.482;10.238;2023-04-25T08:49:57;14.83;;;1.70;;
3881;SDS011;1956;53.482;10.238;2023-04-25T08:54:58;9.93;;;1.30;;
3881;SDS011;1956;53.482;10.238;2023-04-25T09:00:00;10.67;;;2.30;;
3881;SDS011;1956;53.482;10.238;2023-04-25T09:05:01;3.70;;;1.40;;
3881;SDS011;1956;53.482;10.238;2023-04-25T09:10:01;6.03;;;1.37;;
3881;SDS011;1956;53.482;10.238;2023-04-25T09:15:04;6.67;;;2.00;;
3881;SDS011;1956;53.482;10.238;2023-04-25T09:20:10;12.00;;;1.80;;
3881;SDS011;1956;53.482;10.238;2023-04-25T09:25:11;10.13;;;1.97;;
3881;SDS011;1956;53.482;10.238;2023-04-25T09:30:13;3.93;;;1.17;;
3881;SDS011;1956;53.482;10.238;2023-04-25T09:35:23;5.50;;;1.30;;
3881;SDS011;1956;53.482;10.238;2023-04-25T09:40:23;1.60;;;1.03;;
3881;SDS011;1956;53.482;10.238;2023-04-25T09:45:23;3.28;;;0.75;;
3881;SDS011;1956;53.482;10.238;2023-04-25T09:50:24;6.57;;;1.77;;
3881;SDS011;1956;53.482;10.238;2023-04-25T09:55:24;3.00;;;0.87;;
3881;SDS011;1956;53.482;10.238;2023-04-25T10:00:25;7.97;;;1.50;;
3881;SDS011;1956;53.482;10.238;2023-04-25T10:05:25;9.23;;;1.33;;
3881;SDS011;1956;53.482;10.238;2023-04-25T10:10:25;5.50;;;1.60;;
3881;SDS011;1956;53.482;10.238;2023-04-25T10:15:28;10.63;;;1.97;;
3881;SDS011;1956;53.482;10.238;2023-04-25T10:20:29;8.87;;;1.73;;
3881;SDS011;1956;53.482;10.238;2023-04-25T10:25:29;4.10;;;1.37;;
3881;SDS011;1956;53.482;10.238;2023-04-25T10:30:30;8.67;;;1.40;;
3881;SDS011;1956;53.482;10.238;2023-04-25T10:35:30;4.40;;;1.38;;
3881;SDS011;1956;53.482;10.238;2023-04-25T10:40:31;2.90;;;1.20;;
3881;SDS011;1956;53.482;10.238;2023-04-25T10:45:43;1.63;;;0.93;;
3881;SDS011;1956;53.482;10.238;2023-04-25T10:50:51;4.70;;;0.90;;
3881;SDS011;1956;53.482;10.238;2023-04-25T10:56:10;6.27;;;1.60;;
3881;SDS011;1956;53.482;10.238;2023-04-25T11:01:11;2.63;;;0.90;;
3881;SDS011;1956;53.482;10.238;2023-04-25T11:11:37;5.30;;;1.47;;
3881;SDS011;1956;53.482;10.238;2023-04-25T11:16:37;8.20;;;1.47;;
3881;SDS011;1956;53.482;10.238;2023-04-25T11:21:37;7.30;;;1.98;;
3881;SDS011;1956;53.482;10.238;2023-04-25T11:26:38;5.60;;;1.00;;
3881;SDS011;1956;53.482;10.238;2023-04-25T11:31:38;11.25;;;1.40;;
3881;SDS011;1956;53.482;10.238;2023-04-25T11:36:38;11.00;;;2.10;;
3881;SDS011;1956;53.482;10.238;2023-04-25T11:41:38;5.83;;;1.30;;
3881;SDS011;1956;53.482;10.238;2023-04-25T11:46:39;9.43;;;1.17;;
3881;SDS011;1956;53.482;10.238;2023-04-25T11:51:44;4.03;;;1.63;;
3881;SDS011;1956;53.482;10.238;2023-04-25T11:56:45;12.00;;;1.40;;
3881;SDS011;1956;53.482;10.238;2023-04-25T12:01:49;3.70;;;1.03;;
3881;SDS011;1956;53.482;10.238;2023-04-25T12:06:50;3.10;;;1.00;;
3881;SDS011;1956;53.482;10.238;2023-04-25T12:11:54;3.60;;;0.80;;
3881;SDS011;1956;53.482;10.238;2023-04-25T12:16:55;3.10;;;1.17;;
3881;SDS011;1956;53.482;10.238;2023-04-25T12:21:57;8.03;;;1.17;;
3881;SDS011;1956;53.482;10.238;2023-04-25T12:27:01;7.77;;;1.13;;
3881;SDS011;1956;53.482;10.238;2023-04-25T12:32:02;5.70;;;0.80;;
3881;SDS011;1956;53.482;10.238;2023-04-25T12:37:02;5.53;;;1.03;;
3881;SDS011;1956;53.482;10.238;2023-04-25T12:42:02;6.63;;;1.20;;
3881;SDS011;1956;53.482;10.238;2023-04-25T12:47:03;2.07;;;1.07;;
3881;SDS011;1956;53.482;10.238;2023-04-25T12:52:03;2.37;;;0.80;;
3881;SDS011;1956;53.482;10.238;2023-04-25T12:57:04;2.60;;;1.03;;
3881;SDS011;1956;53.482;10.238;2023-04-25T13:02:04;3.07;;;1.07;;
3881;SDS011;1956;53.482;10.238;2023-04-25T13:07:04;3.37;;;0.80;;
3881;SDS011;1956;53.482;10.238;2023-04-25T13:12:05;6.30;;;1.07;;
3881;SDS011;1956;53.482;10.238;2023-04-25T13:17:05;4.53;;;0.83;;
3881;SDS011;1956;53.482;10.238;2023-04-25T13:22:05;2.20;;;1.00;;
3881;SDS011;1956;53.482;10.238;2023-04-25T13:27:06;3.33;;;1.50;;
3881;SDS011;1956;53.482;10.238;2023-04-25T13:32:06;6.93;;;1.43;;
3881;SDS011;1956;53.482;10.238;2023-04-25T13:37:06;4.53;;;1.17;;
3881;SDS011;1956;53.482;10.238;2023-04-25T13:42:06;3.30;;;0.70;;
3881;SDS011;1956;53.482;10.238;2023-04-25T13:47:07;4.13;;;1.13;;
3881;SDS011;1956;53.482;10.238;2023-04-25T13:52:07;3.53;;;0.90;;
3881;SDS011;1956;53.482;10.238;2023-04-25T13:57:07;5.23;;;1.30;;
3881;SDS011;1956;53.482;10.238;2023-04-25T14:02:08;4.53;;;1.37;;
3881;SDS011;1956;53.482;10.238;2023-04-25T14:07:08;8.73;;;1.23;;
3881;SDS011;1956;53.482;10.238;2023-04-25T14:12:08;6.67;;;1.40;;
3881;SDS011;1956;53.482;10.238;2023-04-25T14:17:09;4.93;;;1.38;;
3881;SDS011;1956;53.482;10.238;2023-04-25T14:22:09;2.27;;;0.90;;
3881;SDS011;1956;53.482;10.238;2023-04-25T14:27:09;5.80;;;1.50;;
3881;SDS011;1956;53.482;10.238;2023-04-25T14:32:10;3.93;;;1.50;;
3881;SDS011;1956;53.482;10.238;2023-04-25T14:37:10;5.50;;;1.47;;
3881;SDS011;1956;53.482;10.238;2023-04-25T14:42:11;4.93;;;1.67;;
3881;SDS011;1956;53.482;10.238;2023-04-25T14:47:11;3.73;;;1.30;;
3881;SDS011;1956;53.482;10.238;2023-04-25T14:52:11;5.30;;;1.30;;
3881;SDS011;1956;53.482;10.238;2023-04-25T14:57:11;2.37;;;1.10;;
3881;SDS011;1956;53.482;10.238;2023-04-25T15:02:12;4.60;;;1.40;;
3881;SDS011;1956;53.482;10.238;2023-04-25T15:07:12;3.27;;;1.10;;
3881;SDS011;1956;53.482;10.238;2023-04-25T15:12:12;1.97;;;1.00;;
3881;SDS011;1956;53.482;10.238;2023-04-25T15:17:13;5.10;;;1.15;;
3881;SDS011;1956;53.482;10.238;2023-04-25T15:22:14;4.10;;;1.00;;
3881;SDS011;1956;53.482;10.238;2023-04-25T15:27:15;6.07;;;1.40;;
3881;SDS011;1956;53.482;10.238;2023-04-25T15:32:15;7.83;;;1.33;;
3881;SDS011;1956;53.482;10.238;2023-04-25T15:37:18;6.63;;;1.37;;
3881;SDS011;1956;53.482;10.238;2023-04-25T15:42:19;5.87;;;2.03;;
3881;SDS011;1956;53.482;10.238;2023-04-25T15:47:19;12.10;;;2.30;;
3881;SDS011;1956;53.482;10.238;2023-04-25T15:52:19;10.60;;;1.60;;
3881;SDS011;1956;53.482;10.238;2023-04-25T15:57:20;6.30;;;1.17;;
3881;SDS011;1956;53.482;10.238;2023-04-25T16:02:21;7.40;;;1.63;;
3881;SDS011;1956;53.482;10.238;2023-04-25T16:07:21;5.82;;;1.20;;
3881;SDS011;1956;53.482;10.238;2023-04-25T16:12:22;5.17;;;1.47;;
3881;SDS011;1956;53.482;10.238;2023-04-25T16:17:22;5.05;;;1.20;;
3881;SDS011;1956;53.482;10.238;2023-04-25T16:22:23;2.70;;;0.70;;
3881;SDS011;1956;53.482;10.238;2023-04-25T16:27:23;6.72;;;1.17;;
3881;SDS011;1956;53.482;10.238;2023-04-25T16:32:23;3.93;;;1.60;;
3881;SDS011;1956;53.482;10.238;2023-04-25T16:37:23;5.10;;;1.10;;
3881;SDS011;1956;53.482;10.238;2023-04-25T16:42:24;2.37;;;1.00;;
3881;SDS011;1956;53.482;10.238;2023-04-25T16:47:24;5.53;;;1.30;;
3881;SDS011;1956;53.482;10.238;2023-04-25T16:52:25;4.40;;;1.10;;
3881;SDS011;1956;53.482;10.238;2023-04-25T16:57:25;8.70;;;1.40;;
3881;SDS011;1956;53.482;10.238;2023-04-25T17:02:25;3.83;;;1.27;;
3881;SDS011;1956;53.482;10.238;2023-04-25T17:07:26;4.23;;;1.30;;
3881;SDS011;1956;53.482;10.238;2023-04-25T17:12:26;3.47;;;0.93;;
3881;SDS011;1956;53.482;10.238;2023-04-25T17:17:27;5.20;;;1.73;;
3881;SDS011;1956;53.482;10.238;2023-04-25T17:22:27;1.73;;;0.90;;
3881;SDS011;1956;53.482;10.238;2023-04-25T17:27:27;7.47;;;1.00;;
3881;SDS011;1956;53.482;10.238;2023-04-25T17:32:28;5.70;;;1.33;;
3881;SDS011;1956;53.482;10.238;2023-04-25T17:37:29;11.47;;;1.50;;
3881;SDS011;1956;53.482;10.238;2023-04-25T17:42:29;2.10;;;1.10;;
3881;SDS011;1956;53.482;10.238;2023-04-25T17:47:29;4.40;;;1.03;;
3881;SDS011;1956;53.482;10.238;2023-04-25T17:52:30;2.97;;;1.33;;
3881;SDS011;1956;53.482;10.238;2023-04-25T17:57:31;3.57;;;1.10;;
3881;SDS011;1956;53.482;10.238;2023-04-25T18:02:31;2.50;;;0.90;;
3881;SDS011;1956;53.482;10.238;2023-04-25T18:07:32;3.40;;;0.90;;
3881;SDS011;1956;53.482;10.238;2023-04-25T18:12:32;2.67;;;1.20;;
3881;SDS011;1956;53.482;10.238;2023-04-25T18:17:33;4.20;;;0.90;;
3881;SDS011;1956;53.482;10.238;2023-04-25T18:22:33;2.03;;;0.80;;
3881;SDS011;1956;53.482;10.238;2023-04-25T18:27:35;3.17;;;1.07;;
3881;SDS011;1956;53.482;10.238;2023-04-25T18:32:36;6.00;;;1.23;;
3881;SDS011;1956;53.482;10.238;2023-04-25T18:37:36;8.40;;;1.30;;
3881;SDS011;1956;53.482;10.238;2023-04-25T18:42:37;14.67;;;1.37;;
3881;SDS011;1956;53.482;10.238;2023-04-25T18:47:37;3.77;;;0.83;;
3881;SDS011;1956;53.482;10.238;2023-04-25T18:52:38;8.53;;;1.27;;
3881;SDS011;1956;53.482;10.238;2023-04-25T18:57:38;3.58;;;0.90;;
3881;SDS011;1956;53.482;10.238;2023-04-25T19:02:38;4.85;;;0.90;;
3881;SDS011;1956;53.482;10.238;2023-04-25T19:07:38;7.50;;;1.67;;
3881;SDS011;1956;53.482;10.238;2023-04-25T19:12:39;3.43;;;1.30;;
3881;SDS011;1956;53.482;10.238;2023-04-25T19:17:39;4.30;;;1.10;;
3881;SDS011;1956;53.482;10.238;2023-04-25T19:22:41;3.87;;;1.20;;
3881;SDS011;1956;53.482;10.238;2023-04-25T19:27:41;7.40;;;1.93;;
3881;SDS011;1956;53.482;10.238;2023-04-25T19:32:41;2.25;;;1.00;;
3881;SDS011;1956;53.482;10.238;2023-04-25T19:37:42;4.22;;;0.98;;
3881;SDS011;1956;53.482;10.238;2023-04-25T19:42:45;9.63;;;1.83;;
3881;SDS011;1956;53.482;10.238;2023-04-25T19:47:45;5.78;;;1.88;;
3881;SDS011;1956;53.482;10.238;2023-04-25T19:52:45;5.43;;;1.65;;
3881;SDS011;1956;53.482;10.238;2023-04-25T19:57:46;8.70;;;1.27;;
3881;SDS011;1956;53.482;10.238;2023-04-25T20:02:46;10.93;;;1.07;;
3881;SDS011;1956;53.482;10.238;2023-04-25T20:07:47;4.20;;;1.50;;
3881;SDS011;1956;53.482;10.238;2023-04-25T20:12:47;7.43;;;1.55;;
3881;SDS011;1956;53.482;10.238;2023-04-25T20:17:48;6.33;;;1.20;;
3881;SDS011;1956;53.482;10.238;2023-04-25T20:22:48;14.13;;;1.20;;
3881;SDS011;1956;53.482;10.238;2023-04-25T20:27:50;10.27;;;1.30;;
3881;SDS011;1956;53.482;10.238;2023-04-25T20:32:50;4.30;;;1.00;;
3881;SDS011;1956;53.482;10.238;2023-04-25T20:37:50;6.75;;;1.42;;
3881;SDS011;1956;53.482;10.238;2023-04-25T20:42:51;9.50;;;1.65;;
3881;SDS011;1956;53.482;10.238;2023-04-25T20:47:51;2.30;;;0.95;;
3881;SDS011;1956;53.482;10.238;2023-04-25T20:52:51;2.10;;;1.00;;
3881;SDS011;1956;53.482;10.238;2023-04-25T20:57:52;3.37;;;1.03;;
3881;SDS011;1956;53.482;10.238;2023-04-25T21:02:52;8.17;;;1.77;;
3881;SDS011;1956;53.482;10.238;2023-04-25T21:07:53;3.27;;;1.27;;
3881;SDS011;1956;53.482;10.238;2023-04-25T21:12:53;3.90;;;1.43;;
3881;SDS011;1956;53.482;10.238;2023-04-25T21:17:55;5.77;;;1.40;;
3881;SDS011;1956;53.482;10.238;2023-04-25T21:22:55;8.60;;;1.20;;
3881;SDS011;1956;53.482;10.238;2023-04-25T21:27:56;5.37;;;1.20;;
3881;SDS011;1956;53.482;10.238;2023-04-25T21:32:56;4.90;;;1.10;;
3881;SDS011;1956;53.482;10.238;2023-04-25T21:37:56;10.68;;;1.42;;
3881;SDS011;1956;53.482;10.238;2023-04-25T21:42:57;1.67;;;0.90;;
3881;SDS011;1956;53.482;10.238;2023-04-25T21:47:57;4.20;;;1.03;;
3881;SDS011;1956;53.482;10.238;2023-04-25T21:52:57;2.63;;;0.97;;
3881;SDS011;1956;53.482;10.238;2023-04-25T21:57:58;8.47;;;2.20;;
3881;SDS011;1956;53.482;10.238;2023-04-25T22:02:58;3.13;;;1.13;;
3881;SDS011;1956;53.482;10.238;2023-04-25T22:07:59;5.70;;;1.20;;
3881;SDS011;1956;53.482;10.238;2023-04-25T22:12:59;3.70;;;0.80;;
3881;SDS011;1956;53.482;10.238;2023-04-25T22:17:59;3.23;;;1.10;;
3881;SDS011;1956;53.482;10.238;2023-04-25T22:23:00;7.90;;;1.77;;
3881;SDS011;1956;53.482;10.238;2023-04-25T22:28:00;6.03;;;1.08;;
3881;SDS011;1956;53.482;10.238;2023-04-25T22:33:01;5.67;;;1.50;;
3881;SDS011;1956;53.482;10.238;2023-04-25T22:38:01;2.03;;;0.60;;
3881;SDS011;1956;53.482;10.238;2023-04-25T22:43:01;1.13;;;0.90;;
3881;SDS011;1956;53.482;10.238;2023-04-25T22:48:02;3.33;;;1.80;;
3881;SDS011;1956;53.482;10.238;2023-04-25T22:53:02;3.67;;;1.50;;
3881;SDS011;1956;53.482;10.238;2023-04-25T22:58:03;5.40;;;1.10;;
3881;SDS011;1956;53.482;10.238;2023-04-25T23:03:03;1.40;;;0.93;;
3881;SDS011;1956;53.482;10.238;2023-04-25T23:08:04;3.07;;;1.23;;
3881;SDS011;1956;53.482;10.238;2023-04-25T23:13:05;6.20;;;1.57;;
3881;SDS011;1956;53.482;10.238;2023-04-25T23:18:05;6.30;;;1.33;;
3881;SDS011;1956;53.482;10.238;2023-04-25T23:23:05;4.10;;;1.43;;
3881;SDS011;1956;53.482;10.238;2023-04-25T23:28:06;5.13;;;1.00;;
3881;SDS011;1956;53.482;10.238;2023-04-25T23:33:06;6.47;;;1.65;;
3881;SDS011;1956;53.482;10.238;2023-04-25T23:38:06;5.60;;;1.47;;
3881;SDS011;1956;53.482;10.238;2023-04-25T23:43:07;5.97;;;1.27;;
3881;SDS011;1956;53.482;10.238;2023-04-25T23:48:07;8.63;;;1.50;;
3881;SDS011;1956;53.482;10.238;2023-04-25T23:53:07;7.70;;;2.00;;
3881;SDS011;1956;53.482;10.238;2023-04-25T23:58:08;12.27;;;1.53;;
